sensor_id;sensor_type;location;lat;lon;timestamp;P1;durP1;ratioP1;P2;durP2;ratioP2
5217;SDS011;26539;51.064;6.346;2022-08-21T00:02:26;13.50;;;10.73;;
5217;SDS011;26539;51.064;6.346;2022-08-21T00:04:52;15.20;;;10.33;;
5217;SDS011;26539;51.064;6.346;2022-08-21T00:07:19;16.70;;;9.17;;
5217;SDS011;26539;51.064;6.346;2022-08-21T00:09:46;12.80;;;8.93;;
5217;SDS011;26539;51.064;6.346;2022-08-21T00:12:11;11.80;;;10.57;;
5217;SDS011;26539;51.064;6.346;2022-08-21T00:14:37;11.30;;;10.10;;
5217;SDS011;26539;51.064;6.346;2022-08-21T00:17:04;15.27;;;10.50;;
5217;SDS011;26539;51.064;6.346;2022-08-21T00:19:31;14.00;;;10.03;;
5217;SDS011;26539;51.064;6.346;2022-08-21T00:22:03;18.23;;;11.90;;
5217;SDS011;26539;51.064;6.346;2022-08-21T00:24:29;13.77;;;11.27;;
5217;SDS011;26539;51.064;6.346;2022-08-21T00:26:54;16.23;;;12.10;;
5217;SDS011;26539;51.064;6.346;2022-08-21T00:29:20;16.27;;;11.40;;
5217;SDS011;26539;51.064;6.346;2022-08-21T00:31:46;12.97;;;11.70;;
5217;SDS011;26539;51.064;6.346;2022-08-21T00:34:12;18.07;;;12.10;;
5217;SDS011;26539;51.064;6.346;2022-08-21T00:36:38;15.67;;;11.63;;
5217;SDS011;26539;51.064;6.346;2022-08-21T00:39:05;19.40;;;12.60;;
5217;SDS011;26539;51.064;6.346;2022-08-21T00:41:32;13.60;;;12.20;;
5217;SDS011;26539;51.064;6.346;2022-08-21T00:44:00;15.40;;;12.00;;
5217;SDS011;26539;51.064;6.346;2022-08-21T00:46:25;17.97;;;12.47;;
5217;SDS011;26539;51.064;6.346;2022-08-21T00:48:51;15.60;;;11.73;;
5217;SDS011;26539;51.064;6.346;2022-08-21T00:51:19;13.23;;;11.30;;
5217;SDS011;26539;51.064;6.346;2022-08-21T00:53:51;16.90;;;11.30;;
5217;SDS011;26539;51.064;6.346;2022-08-21T00:56:20;15.47;;;11.43;;
5217;SDS011;26539;51.064;6.346;2022-08-21T00:58:48;15.80;;;12.07;;
5217;SDS011;26539;51.064;6.346;2022-08-21T01:01:14;11.80;;;10.60;;
5217;SDS011;26539;51.064;6.346;2022-08-21T01:03:40;13.00;;;11.27;;
5217;SDS011;26539;51.064;6.346;2022-08-21T01:06:06;12.10;;;10.90;;
5217;SDS011;26539;51.064;6.346;2022-08-21T01:08:32;17.53;;;11.50;;
5217;SDS011;26539;51.064;6.346;2022-08-21T01:10:59;12.10;;;10.10;;
5217;SDS011;26539;51.064;6.346;2022-08-21T01:13:26;14.97;;;10.83;;
5217;SDS011;26539;51.064;6.346;2022-08-21T01:15:54;14.03;;;10.60;;
5217;SDS011;26539;51.064;6.346;2022-08-21T01:18:24;11.30;;;8.63;;
5217;SDS011;26539;51.064;6.346;2022-08-21T01:21:12;10.67;;;9.67;;
5217;SDS011;26539;51.064;6.346;2022-08-21T01:23:41;14.00;;;8.23;;
5217;SDS011;26539;51.064;6.346;2022-08-21T01:26:09;12.93;;;8.67;;
5217;SDS011;26539;51.064;6.346;2022-08-21T01:28:37;9.93;;;8.53;;
5217;SDS011;26539;51.064;6.346;2022-08-21T01:31:08;15.10;;;9.13;;
5217;SDS011;26539;51.064;6.346;2022-08-21T01:33:37;12.90;;;8.30;;
5217;SDS011;26539;51.064;6.346;2022-08-21T01:36:03;11.93;;;8.53;;
5217;SDS011;26539;51.064;6.346;2022-08-21T01:38:29;13.43;;;8.10;;
5217;SDS011;26539;51.064;6.346;2022-08-21T01:40:55;15.40;;;7.37;;
5217;SDS011;26539;51.064;6.346;2022-08-21T01:43:20;9.97;;;7.37;;
5217;SDS011;26539;51.064;6.346;2022-08-21T01:45:46;15.37;;;8.40;;
5217;SDS011;26539;51.064;6.346;2022-08-21T01:48:11;14.00;;;8.27;;
5217;SDS011;26539;51.064;6.346;2022-08-21T01:50:37;12.43;;;7.07;;
5217;SDS011;26539;51.064;6.346;2022-08-21T01:53:03;15.10;;;6.80;;
5217;SDS011;26539;51.064;6.346;2022-08-21T01:55:29;14.10;;;7.30;;
5217;SDS011;26539;51.064;6.346;2022-08-21T01:57:54;15.27;;;7.47;;
5217;SDS011;26539;51.064;6.346;2022-08-21T02:00:22;13.23;;;7.60;;
5217;SDS011;26539;51.064;6.346;2022-08-21T02:02:48;15.07;;;7.20;;
5217;SDS011;26539;51.064;6.346;2022-08-21T02:05:14;12.13;;;7.17;;
5217;SDS011;26539;51.064;6.346;2022-08-21T02:07:42;9.17;;;6.97;;
5217;SDS011;26539;51.064;6.346;2022-08-21T02:10:10;11.13;;;7.10;;
5217;SDS011;26539;51.064;6.346;2022-08-21T02:12:37;15.27;;;7.40;;
5217;SDS011;26539;51.064;6.346;2022-08-21T02:15:03;10.53;;;6.77;;
5217;SDS011;26539;51.064;6.346;2022-08-21T02:20:33;12.17;;;6.90;;
5217;SDS011;26539;51.064;6.346;2022-08-21T02:23:00;12.87;;;6.17;;
5217;SDS011;26539;51.064;6.346;2022-08-21T02:25:27;10.57;;;5.90;;
5217;SDS011;26539;51.064;6.346;2022-08-21T02:27:53;12.97;;;6.67;;
5217;SDS011;26539;51.064;6.346;2022-08-21T02:30:23;19.23;;;7.53;;
5217;SDS011;26539;51.064;6.346;2022-08-21T02:32:51;11.60;;;6.50;;
5217;SDS011;26539;51.064;6.346;2022-08-21T02:35:17;10.20;;;6.50;;
5217;SDS011;26539;51.064;6.346;2022-08-21T02:37:48;8.43;;;5.87;;
5217;SDS011;26539;51.064;6.346;2022-08-21T02:40:17;13.80;;;6.37;;
5217;SDS011;26539;51.064;6.346;2022-08-21T02:42:45;9.73;;;6.40;;
5217;SDS011;26539;51.064;6.346;2022-08-21T02:45:11;9.17;;;6.30;;
5217;SDS011;26539;51.064;6.346;2022-08-21T02:47:37;11.13;;;6.30;;
5217;SDS011;26539;51.064;6.346;2022-08-21T02:50:03;11.87;;;6.33;;
5217;SDS011;26539;51.064;6.346;2022-08-21T02:52:30;11.73;;;6.93;;
5217;SDS011;26539;51.064;6.346;2022-08-21T02:54:56;11.47;;;6.13;;
5217;SDS011;26539;51.064;6.346;2022-08-21T02:57:21;8.97;;;5.80;;
5217;SDS011;26539;51.064;6.346;2022-08-21T02:59:47;10.87;;;6.57;;
5217;SDS011;26539;51.064;6.346;2022-08-21T03:02:12;7.60;;;5.90;;
5217;SDS011;26539;51.064;6.346;2022-08-21T03:04:38;8.77;;;5.80;;
5217;SDS011;26539;51.064;6.346;2022-08-21T03:07:04;6.83;;;5.93;;
5217;SDS011;26539;51.064;6.346;2022-08-21T03:09:29;7.80;;;6.10;;
5217;SDS011;26539;51.064;6.346;2022-08-21T03:11:55;8.90;;;6.50;;
5217;SDS011;26539;51.064;6.346;2022-08-21T03:14:20;5.77;;;5.10;;
5217;SDS011;26539;51.064;6.346;2022-08-21T03:16:46;15.93;;;5.43;;
5217;SDS011;26539;51.064;6.346;2022-08-21T03:19:11;7.37;;;5.07;;
5217;SDS011;26539;51.064;6.346;2022-08-21T03:21:38;8.27;;;5.40;;
5217;SDS011;26539;51.064;6.346;2022-08-21T03:24:03;10.90;;;5.50;;
5217;SDS011;26539;51.064;6.346;2022-08-21T03:26:29;9.13;;;4.73;;
5217;SDS011;26539;51.064;6.346;2022-08-21T03:28:56;13.33;;;5.43;;
5217;SDS011;26539;51.064;6.346;2022-08-21T03:31:22;8.60;;;4.97;;
5217;SDS011;26539;51.064;6.346;2022-08-21T03:33:48;8.53;;;5.37;;
5217;SDS011;26539;51.064;6.346;2022-08-21T03:36:14;15.43;;;5.20;;
5217;SDS011;26539;51.064;6.346;2022-08-21T03:38:40;6.60;;;4.93;;
5217;SDS011;26539;51.064;6.346;2022-08-21T03:41:06;7.17;;;5.40;;
5217;SDS011;26539;51.064;6.346;2022-08-21T03:43:32;12.17;;;5.80;;
5217;SDS011;26539;51.064;6.346;2022-08-21T03:46:00;16.33;;;5.40;;
5217;SDS011;26539;51.064;6.346;2022-08-21T03:48:27;15.37;;;5.17;;
5217;SDS011;26539;51.064;6.346;2022-08-21T03:50:53;14.37;;;5.53;;
5217;SDS011;26539;51.064;6.346;2022-08-21T03:53:19;10.07;;;5.27;;
5217;SDS011;26539;51.064;6.346;2022-08-21T03:55:46;15.30;;;6.40;;
5217;SDS011;26539;51.064;6.346;2022-08-21T03:58:17;9.67;;;5.40;;
5217;SDS011;26539;51.064;6.346;2022-08-21T04:00:47;8.77;;;5.70;;
5217;SDS011;26539;51.064;6.346;2022-08-21T04:03:15;8.73;;;5.60;;
5217;SDS011;26539;51.064;6.346;2022-08-21T04:05:42;6.63;;;5.20;;
5217;SDS011;26539;51.064;6.346;2022-08-21T04:08:10;8.73;;;5.50;;
5217;SDS011;26539;51.064;6.346;2022-08-21T04:10:36;12.20;;;6.77;;
5217;SDS011;26539;51.064;6.346;2022-08-21T04:13:05;13.33;;;5.90;;
5217;SDS011;26539;51.064;6.346;2022-08-21T04:15:32;7.23;;;6.07;;
5217;SDS011;26539;51.064;6.346;2022-08-21T04:17:58;10.50;;;5.90;;
5217;SDS011;26539;51.064;6.346;2022-08-21T04:20:24;11.90;;;5.93;;
5217;SDS011;26539;51.064;6.346;2022-08-21T04:22:50;5.53;;;5.00;;
5217;SDS011;26539;51.064;6.346;2022-08-21T04:25:17;9.23;;;5.13;;
5217;SDS011;26539;51.064;6.346;2022-08-21T04:27:45;15.07;;;6.10;;
5217;SDS011;26539;51.064;6.346;2022-08-21T04:30:11;17.30;;;5.83;;
5217;SDS011;26539;51.064;6.346;2022-08-21T04:32:38;7.30;;;5.33;;
5217;SDS011;26539;51.064;6.346;2022-08-21T04:35:08;10.93;;;5.87;;
5217;SDS011;26539;51.064;6.346;2022-08-21T04:37:34;7.20;;;5.23;;
5217;SDS011;26539;51.064;6.346;2022-08-21T04:40:00;7.43;;;5.07;;
5217;SDS011;26539;51.064;6.346;2022-08-21T04:42:27;7.73;;;4.80;;
5217;SDS011;26539;51.064;6.346;2022-08-21T04:44:53;15.30;;;5.10;;
5217;SDS011;26539;51.064;6.346;2022-08-21T04:47:19;9.10;;;5.20;;
5217;SDS011;26539;51.064;6.346;2022-08-21T04:49:46;13.10;;;5.77;;
5217;SDS011;26539;51.064;6.346;2022-08-21T04:52:12;12.77;;;4.67;;
5217;SDS011;26539;51.064;6.346;2022-08-21T04:54:40;9.63;;;5.57;;
5217;SDS011;26539;51.064;6.346;2022-08-21T04:57:10;6.90;;;4.60;;
5217;SDS011;26539;51.064;6.346;2022-08-21T04:59:41;9.60;;;5.17;;
5217;SDS011;26539;51.064;6.346;2022-08-21T05:02:11;8.90;;;6.10;;
5217;SDS011;26539;51.064;6.346;2022-08-21T05:04:40;6.60;;;4.33;;
5217;SDS011;26539;51.064;6.346;2022-08-21T05:07:10;10.97;;;5.40;;
5217;SDS011;26539;51.064;6.346;2022-08-21T05:09:49;8.83;;;5.33;;
5217;SDS011;26539;51.064;6.346;2022-08-21T05:12:15;10.00;;;4.50;;
5217;SDS011;26539;51.064;6.346;2022-08-21T05:14:41;6.50;;;4.33;;
5217;SDS011;26539;51.064;6.346;2022-08-21T05:17:07;9.33;;;5.20;;
5217;SDS011;26539;51.064;6.346;2022-08-21T05:19:34;7.70;;;5.20;;
5217;SDS011;26539;51.064;6.346;2022-08-21T05:21:59;11.27;;;5.30;;
5217;SDS011;26539;51.064;6.346;2022-08-21T05:24:26;16.13;;;5.40;;
5217;SDS011;26539;51.064;6.346;2022-08-21T05:26:52;11.80;;;4.40;;
5217;SDS011;26539;51.064;6.346;2022-08-21T05:29:18;6.60;;;3.80;;
5217;SDS011;26539;51.064;6.346;2022-08-21T05:31:44;8.60;;;4.00;;
5217;SDS011;26539;51.064;6.346;2022-08-21T05:34:10;7.57;;;3.50;;
5217;SDS011;26539;51.064;6.346;2022-08-21T05:36:37;6.67;;;3.20;;
5217;SDS011;26539;51.064;6.346;2022-08-21T05:39:02;9.53;;;3.43;;
5217;SDS011;26539;51.064;6.346;2022-08-21T05:41:28;9.93;;;4.00;;
5217;SDS011;26539;51.064;6.346;2022-08-21T05:43:54;7.10;;;3.03;;
5217;SDS011;26539;51.064;6.346;2022-08-21T05:46:19;6.80;;;3.63;;
5217;SDS011;26539;51.064;6.346;2022-08-21T05:48:45;6.00;;;3.27;;
5217;SDS011;26539;51.064;6.346;2022-08-21T05:51:12;4.57;;;3.27;;
5217;SDS011;26539;51.064;6.346;2022-08-21T05:53:39;6.20;;;2.87;;
5217;SDS011;26539;51.064;6.346;2022-08-21T05:56:07;6.40;;;3.13;;
5217;SDS011;26539;51.064;6.346;2022-08-21T05:58:34;4.43;;;2.97;;
5217;SDS011;26539;51.064;6.346;2022-08-21T06:01:00;8.53;;;3.00;;
5217;SDS011;26539;51.064;6.346;2022-08-21T06:03:28;4.77;;;2.60;;
5217;SDS011;26539;51.064;6.346;2022-08-21T06:05:56;6.60;;;2.27;;
5217;SDS011;26539;51.064;6.346;2022-08-21T06:08:22;10.80;;;3.10;;
5217;SDS011;26539;51.064;6.346;2022-08-21T06:10:49;7.07;;;2.83;;
5217;SDS011;26539;51.064;6.346;2022-08-21T06:13:19;4.57;;;2.80;;
5217;SDS011;26539;51.064;6.346;2022-08-21T06:15:45;6.25;;;2.90;;
5217;SDS011;26539;51.064;6.346;2022-08-21T06:18:11;4.30;;;2.60;;
5217;SDS011;26539;51.064;6.346;2022-08-21T06:20:37;4.57;;;2.30;;
5217;SDS011;26539;51.064;6.346;2022-08-21T06:23:03;6.40;;;2.70;;
5217;SDS011;26539;51.064;6.346;2022-08-21T06:25:29;6.57;;;2.35;;
5217;SDS011;26539;51.064;6.346;2022-08-21T06:28:04;4.15;;;2.90;;
5217;SDS011;26539;51.064;6.346;2022-08-21T06:30:32;3.35;;;2.13;;
5217;SDS011;26539;51.064;6.346;2022-08-21T06:32:58;6.00;;;2.80;;
5217;SDS011;26539;51.064;6.346;2022-08-21T06:35:24;8.18;;;3.00;;
5217;SDS011;26539;51.064;6.346;2022-08-21T06:37:50;5.60;;;2.20;;
5217;SDS011;26539;51.064;6.346;2022-08-21T06:40:16;3.90;;;2.05;;
5217;SDS011;26539;51.064;6.346;2022-08-21T06:42:41;4.10;;;2.28;;
5217;SDS011;26539;51.064;6.346;2022-08-21T06:45:07;7.30;;;2.63;;
5217;SDS011;26539;51.064;6.346;2022-08-21T06:47:34;4.80;;;2.17;;
5217;SDS011;26539;51.064;6.346;2022-08-21T06:49:59;3.97;;;2.33;;
5217;SDS011;26539;51.064;6.346;2022-08-21T06:52:25;3.17;;;1.90;;
5217;SDS011;26539;51.064;6.346;2022-08-21T06:54:50;3.88;;;2.10;;
5217;SDS011;26539;51.064;6.346;2022-08-21T06:57:16;8.40;;;2.42;;
5217;SDS011;26539;51.064;6.346;2022-08-21T07:00:28;5.40;;;2.15;;
5217;SDS011;26539;51.064;6.346;2022-08-21T07:02:54;7.13;;;2.25;;
5217;SDS011;26539;51.064;6.346;2022-08-21T07:05:20;6.03;;;2.17;;
5217;SDS011;26539;51.064;6.346;2022-08-21T07:07:46;6.80;;;2.83;;
5217;SDS011;26539;51.064;6.346;2022-08-21T07:10:13;4.38;;;2.30;;
5217;SDS011;26539;51.064;6.346;2022-08-21T07:12:41;7.75;;;2.35;;
5217;SDS011;26539;51.064;6.346;2022-08-21T07:15:09;5.40;;;2.15;;
5217;SDS011;26539;51.064;6.346;2022-08-21T07:17:36;4.15;;;2.03;;
5217;SDS011;26539;51.064;6.346;2022-08-21T07:20:02;4.68;;;2.00;;
5217;SDS011;26539;51.064;6.346;2022-08-21T07:22:29;7.38;;;2.40;;
5217;SDS011;26539;51.064;6.346;2022-08-21T07:24:57;5.00;;;2.05;;
5217;SDS011;26539;51.064;6.346;2022-08-21T07:27:23;5.68;;;2.05;;
5217;SDS011;26539;51.064;6.346;2022-08-21T07:29:49;6.72;;;2.58;;
5217;SDS011;26539;51.064;6.346;2022-08-21T07:32:17;4.20;;;1.58;;
5217;SDS011;26539;51.064;6.346;2022-08-21T07:34:42;4.78;;;1.88;;
5217;SDS011;26539;51.064;6.346;2022-08-21T07:37:08;5.53;;;1.85;;
5217;SDS011;26539;51.064;6.346;2022-08-21T07:39:34;4.85;;;1.90;;
5217;SDS011;26539;51.064;6.346;2022-08-21T07:41:59;4.45;;;1.98;;
5217;SDS011;26539;51.064;6.346;2022-08-21T07:44:25;5.00;;;2.00;;
5217;SDS011;26539;51.064;6.346;2022-08-21T07:46:50;4.45;;;1.80;;
5217;SDS011;26539;51.064;6.346;2022-08-21T07:49:16;2.70;;;1.23;;
5217;SDS011;26539;51.064;6.346;2022-08-21T07:51:41;3.38;;;1.92;;
5217;SDS011;26539;51.064;6.346;2022-08-21T07:54:07;6.03;;;2.70;;
5217;SDS011;26539;51.064;6.346;2022-08-21T07:56:33;3.67;;;1.30;;
5217;SDS011;26539;51.064;6.346;2022-08-21T07:58:59;2.25;;;1.48;;
5217;SDS011;26539;51.064;6.346;2022-08-21T08:01:27;5.03;;;2.00;;
5217;SDS011;26539;51.064;6.346;2022-08-21T08:03:53;5.03;;;1.83;;
5217;SDS011;26539;51.064;6.346;2022-08-21T08:06:19;3.17;;;1.45;;
5217;SDS011;26539;51.064;6.346;2022-08-21T08:08:45;4.47;;;1.70;;
5217;SDS011;26539;51.064;6.346;2022-08-21T08:11:11;2.95;;;1.35;;
5217;SDS011;26539;51.064;6.346;2022-08-21T08:13:44;3.63;;;1.23;;
5217;SDS011;26539;51.064;6.346;2022-08-21T08:16:28;2.92;;;1.30;;
5217;SDS011;26539;51.064;6.346;2022-08-21T08:25:46;6.47;;;1.27;;
5217;SDS011;26539;51.064;6.346;2022-08-21T08:31:34;3.77;;;1.30;;
5217;SDS011;26539;51.064;6.346;2022-08-21T08:34:06;5.00;;;1.40;;
5217;SDS011;26539;51.064;6.346;2022-08-21T08:36:32;3.57;;;1.93;;
5217;SDS011;26539;51.064;6.346;2022-08-21T08:39:04;2.60;;;1.37;;
5217;SDS011;26539;51.064;6.346;2022-08-21T08:45:25;2.17;;;1.20;;
5217;SDS011;26539;51.064;6.346;2022-08-21T08:48:01;3.57;;;1.40;;
5217;SDS011;26539;51.064;6.346;2022-08-21T08:50:46;3.73;;;1.60;;
5217;SDS011;26539;51.064;6.346;2022-08-21T08:53:29;4.50;;;1.30;;
5217;SDS011;26539;51.064;6.346;2022-08-21T08:56:22;3.13;;;1.67;;
5217;SDS011;26539;51.064;6.346;2022-08-21T08:58:55;3.60;;;1.57;;
5217;SDS011;26539;51.064;6.346;2022-08-21T09:01:26;4.70;;;1.60;;
5217;SDS011;26539;51.064;6.346;2022-08-21T09:04:20;3.60;;;1.93;;
5217;SDS011;26539;51.064;6.346;2022-08-21T09:15:32;3.10;;;1.37;;
5217;SDS011;26539;51.064;6.346;2022-08-21T09:18:11;2.50;;;1.30;;
5217;SDS011;26539;51.064;6.346;2022-08-21T09:20:46;3.10;;;1.20;;
5217;SDS011;26539;51.064;6.346;2022-08-21T09:23:25;3.60;;;1.10;;
5217;SDS011;26539;51.064;6.346;2022-08-21T09:26:13;4.27;;;1.70;;
5217;SDS011;26539;51.064;6.346;2022-08-21T09:28:42;3.67;;;1.20;;
5217;SDS011;26539;51.064;6.346;2022-08-21T09:31:21;3.40;;;1.33;;
5217;SDS011;26539;51.064;6.346;2022-08-21T09:33:47;4.60;;;1.40;;
5217;SDS011;26539;51.064;6.346;2022-08-21T09:36:13;4.30;;;1.40;;
5217;SDS011;26539;51.064;6.346;2022-08-21T09:38:53;3.50;;;1.33;;
5217;SDS011;26539;51.064;6.346;2022-08-21T09:41:25;4.10;;;1.60;;
5217;SDS011;26539;51.064;6.346;2022-08-21T09:43:54;2.80;;;1.40;;
5217;SDS011;26539;51.064;6.346;2022-08-21T09:46:21;3.93;;;1.57;;
5217;SDS011;26539;51.064;6.346;2022-08-21T09:48:49;2.67;;;1.23;;
5217;SDS011;26539;51.064;6.346;2022-08-21T09:51:20;3.03;;;1.10;;
5217;SDS011;26539;51.064;6.346;2022-08-21T09:53:53;2.93;;;1.20;;
5217;SDS011;26539;51.064;6.346;2022-08-21T09:59:44;4.20;;;1.57;;
5217;SDS011;26539;51.064;6.346;2022-08-21T10:02:31;2.60;;;1.20;;
5217;SDS011;26539;51.064;6.346;2022-08-21T10:05:07;2.50;;;1.20;;
5217;SDS011;26539;51.064;6.346;2022-08-21T10:07:40;6.13;;;1.70;;
5217;SDS011;26539;51.064;6.346;2022-08-21T10:13:21;4.33;;;1.83;;
5217;SDS011;26539;51.064;6.346;2022-08-21T10:16:23;4.90;;;1.70;;
5217;SDS011;26539;51.064;6.346;2022-08-21T10:18:56;5.00;;;1.53;;
5217;SDS011;26539;51.064;6.346;2022-08-21T10:24:38;4.37;;;2.20;;
5217;SDS011;26539;51.064;6.346;2022-08-21T10:35:36;4.13;;;1.60;;
5217;SDS011;26539;51.064;6.346;2022-08-21T10:38:25;7.37;;;1.60;;
5217;SDS011;26539;51.064;6.346;2022-08-21T10:41:39;5.90;;;1.50;;
5217;SDS011;26539;51.064;6.346;2022-08-21T10:47:06;7.20;;;1.80;;
5217;SDS011;26539;51.064;6.346;2022-08-21T10:54:52;5.07;;;1.97;;
5217;SDS011;26539;51.064;6.346;2022-08-21T10:57:36;4.43;;;1.70;;
5217;SDS011;26539;51.064;6.346;2022-08-21T11:00:12;3.73;;;1.60;;
5217;SDS011;26539;51.064;6.346;2022-08-21T11:02:41;2.40;;;1.33;;
5217;SDS011;26539;51.064;6.346;2022-08-21T11:05:19;3.43;;;1.43;;
5217;SDS011;26539;51.064;6.346;2022-08-21T11:07:54;4.73;;;1.30;;
5217;SDS011;26539;51.064;6.346;2022-08-21T11:10:30;5.03;;;1.40;;
5217;SDS011;26539;51.064;6.346;2022-08-21T11:13:24;2.40;;;1.60;;
5217;SDS011;26539;51.064;6.346;2022-08-21T11:19:11;2.33;;;1.50;;
5217;SDS011;26539;51.064;6.346;2022-08-21T11:21:46;2.80;;;1.30;;
5217;SDS011;26539;51.064;6.346;2022-08-21T11:29:38;2.93;;;1.53;;
5217;SDS011;26539;51.064;6.346;2022-08-21T11:35:32;5.53;;;1.50;;
5217;SDS011;26539;51.064;6.346;2022-08-21T11:44:01;3.63;;;1.30;;
5217;SDS011;26539;51.064;6.346;2022-08-21T11:46:30;3.40;;;1.40;;
5217;SDS011;26539;51.064;6.346;2022-08-21T11:49:39;3.23;;;1.50;;
5217;SDS011;26539;51.064;6.346;2022-08-21T11:52:26;6.10;;;1.80;;
5217;SDS011;26539;51.064;6.346;2022-08-21T11:57:39;3.20;;;1.30;;
5217;SDS011;26539;51.064;6.346;2022-08-21T12:00:16;3.20;;;1.43;;
5217;SDS011;26539;51.064;6.346;2022-08-21T12:02:51;3.60;;;1.10;;
5217;SDS011;26539;51.064;6.346;2022-08-21T12:05:25;2.80;;;1.20;;
5217;SDS011;26539;51.064;6.346;2022-08-21T12:08:29;3.97;;;1.23;;
5217;SDS011;26539;51.064;6.346;2022-08-21T12:13:53;4.90;;;1.10;;
5217;SDS011;26539;51.064;6.346;2022-08-21T12:16:42;3.37;;;1.30;;
5217;SDS011;26539;51.064;6.346;2022-08-21T12:24:41;3.70;;;1.33;;
5217;SDS011;26539;51.064;6.346;2022-08-21T12:29:45;5.20;;;1.67;;
5217;SDS011;26539;51.064;6.346;2022-08-21T12:34:42;2.33;;;1.00;;
5217;SDS011;26539;51.064;6.346;2022-08-21T12:37:34;4.10;;;1.00;;
5217;SDS011;26539;51.064;6.346;2022-08-21T12:40:11;2.53;;;1.00;;
5217;SDS011;26539;51.064;6.346;2022-08-21T12:42:47;3.13;;;1.20;;
5217;SDS011;26539;51.064;6.346;2022-08-21T12:45:20;5.73;;;1.47;;
5217;SDS011;26539;51.064;6.346;2022-08-21T12:47:58;3.17;;;1.03;;
5217;SDS011;26539;51.064;6.346;2022-08-21T12:50:31;2.00;;;1.13;;
5217;SDS011;26539;51.064;6.346;2022-08-21T12:53:04;5.63;;;1.60;;
5217;SDS011;26539;51.064;6.346;2022-08-21T12:55:35;2.40;;;1.00;;
5217;SDS011;26539;51.064;6.346;2022-08-21T12:58:06;3.30;;;1.40;;
5217;SDS011;26539;51.064;6.346;2022-08-21T13:00:44;4.80;;;1.20;;
5217;SDS011;26539;51.064;6.346;2022-08-21T13:03:17;1.60;;;1.07;;
5217;SDS011;26539;51.064;6.346;2022-08-21T13:05:45;5.93;;;1.57;;
5217;SDS011;26539;51.064;6.346;2022-08-21T13:08:11;4.70;;;1.50;;
5217;SDS011;26539;51.064;6.346;2022-08-21T13:10:39;3.43;;;1.20;;
5217;SDS011;26539;51.064;6.346;2022-08-21T13:13:07;3.73;;;1.60;;
5217;SDS011;26539;51.064;6.346;2022-08-21T13:15:37;4.07;;;1.60;;
5217;SDS011;26539;51.064;6.346;2022-08-21T13:18:05;3.93;;;1.30;;
5217;SDS011;26539;51.064;6.346;2022-08-21T13:20:33;3.57;;;1.13;;
5217;SDS011;26539;51.064;6.346;2022-08-21T13:23:06;1.80;;;1.23;;
5217;SDS011;26539;51.064;6.346;2022-08-21T13:25:52;4.20;;;1.50;;
5217;SDS011;26539;51.064;6.346;2022-08-21T13:28:19;3.03;;;1.30;;
5217;SDS011;26539;51.064;6.346;2022-08-21T13:30:46;4.50;;;1.50;;
5217;SDS011;26539;51.064;6.346;2022-08-21T13:33:15;2.57;;;1.33;;
5217;SDS011;26539;51.064;6.346;2022-08-21T13:35:50;2.70;;;1.17;;
5217;SDS011;26539;51.064;6.346;2022-08-21T13:38:23;3.10;;;1.10;;
5217;SDS011;26539;51.064;6.346;2022-08-21T13:40:57;4.23;;;1.30;;
5217;SDS011;26539;51.064;6.346;2022-08-21T13:43:31;4.60;;;1.70;;
5217;SDS011;26539;51.064;6.346;2022-08-21T13:45:58;2.83;;;1.50;;
5217;SDS011;26539;51.064;6.346;2022-08-21T13:48:30;4.90;;;1.70;;
5217;SDS011;26539;51.064;6.346;2022-08-21T13:50:59;5.00;;;1.20;;
5217;SDS011;26539;51.064;6.346;2022-08-21T13:55:54;7.20;;;1.57;;
5217;SDS011;26539;51.064;6.346;2022-08-21T13:58:24;3.83;;;1.77;;
5217;SDS011;26539;51.064;6.346;2022-08-21T14:00:55;2.97;;;1.50;;
5217;SDS011;26539;51.064;6.346;2022-08-21T14:03:33;5.80;;;1.53;;
5217;SDS011;26539;51.064;6.346;2022-08-21T14:06:10;2.73;;;1.20;;
5217;SDS011;26539;51.064;6.346;2022-08-21T14:08:41;4.33;;;1.53;;
5217;SDS011;26539;51.064;6.346;2022-08-21T14:11:09;6.73;;;1.43;;
5217;SDS011;26539;51.064;6.346;2022-08-21T14:19:26;2.50;;;1.13;;
5217;SDS011;26539;51.064;6.346;2022-08-21T14:22:00;4.27;;;1.37;;
5217;SDS011;26539;51.064;6.346;2022-08-21T14:24:27;3.63;;;1.33;;
5217;SDS011;26539;51.064;6.346;2022-08-21T14:27:03;3.90;;;1.37;;
5217;SDS011;26539;51.064;6.346;2022-08-21T14:29:34;5.83;;;1.47;;
5217;SDS011;26539;51.064;6.346;2022-08-21T14:32:09;4.17;;;1.50;;
5217;SDS011;26539;51.064;6.346;2022-08-21T16:55:07;3.53;;;1.60;;
5217;SDS011;26539;51.064;6.346;2022-08-21T16:57:33;1.90;;;1.23;;
5217;SDS011;26539;51.064;6.346;2022-08-21T16:59:59;5.80;;;1.60;;
5217;SDS011;26539;51.064;6.346;2022-08-21T17:02:30;4.97;;;1.70;;
5217;SDS011;26539;51.064;6.346;2022-08-21T17:04:59;6.93;;;1.77;;
5217;SDS011;26539;51.064;6.346;2022-08-21T17:07:26;4.90;;;1.50;;
5217;SDS011;26539;51.064;6.346;2022-08-21T17:09:52;5.37;;;2.13;;
5217;SDS011;26539;51.064;6.346;2022-08-21T17:12:17;6.30;;;1.30;;
5217;SDS011;26539;51.064;6.346;2022-08-21T17:14:46;4.63;;;1.97;;
5217;SDS011;26539;51.064;6.346;2022-08-21T17:17:12;4.10;;;1.60;;
5217;SDS011;26539;51.064;6.346;2022-08-21T17:19:38;2.70;;;1.17;;
5217;SDS011;26539;51.064;6.346;2022-08-21T17:22:05;3.20;;;1.30;;
5217;SDS011;26539;51.064;6.346;2022-08-21T17:24:32;8.27;;;2.60;;
5217;SDS011;26539;51.064;6.346;2022-08-21T17:26:58;5.43;;;1.73;;
5217;SDS011;26539;51.064;6.346;2022-08-21T17:29:30;8.47;;;1.90;;
5217;SDS011;26539;51.064;6.346;2022-08-21T17:32:02;4.13;;;1.30;;
5217;SDS011;26539;51.064;6.346;2022-08-21T17:34:32;5.83;;;1.70;;
5217;SDS011;26539;51.064;6.346;2022-08-21T17:36:57;5.93;;;1.60;;
5217;SDS011;26539;51.064;6.346;2022-08-21T17:39:24;3.83;;;1.57;;
5217;SDS011;26539;51.064;6.346;2022-08-21T17:41:49;4.43;;;1.83;;
5217;SDS011;26539;51.064;6.346;2022-08-21T17:44:18;3.13;;;1.60;;
5217;SDS011;26539;51.064;6.346;2022-08-21T17:46:45;8.23;;;1.63;;
5217;SDS011;26539;51.064;6.346;2022-08-21T17:49:10;5.63;;;1.77;;
5217;SDS011;26539;51.064;6.346;2022-08-21T17:51:37;4.90;;;1.57;;
5217;SDS011;26539;51.064;6.346;2022-08-21T17:54:06;6.73;;;2.00;;
5217;SDS011;26539;51.064;6.346;2022-08-21T17:56:33;2.80;;;1.60;;
5217;SDS011;26539;51.064;6.346;2022-08-21T17:59:01;3.70;;;1.50;;
5217;SDS011;26539;51.064;6.346;2022-08-21T18:01:31;4.37;;;2.07;;
5217;SDS011;26539;51.064;6.346;2022-08-21T18:03:59;4.00;;;1.70;;
5217;SDS011;26539;51.064;6.346;2022-08-21T18:06:28;4.53;;;1.73;;
5217;SDS011;26539;51.064;6.346;2022-08-21T18:08:54;2.40;;;1.37;;
5217;SDS011;26539;51.064;6.346;2022-08-21T18:11:22;5.80;;;2.10;;
5217;SDS011;26539;51.064;6.346;2022-08-21T18:13:50;8.70;;;2.73;;
5217;SDS011;26539;51.064;6.346;2022-08-21T18:16:21;3.83;;;1.57;;
5217;SDS011;26539;51.064;6.346;2022-08-21T18:18:57;5.90;;;1.70;;
5217;SDS011;26539;51.064;6.346;2022-08-21T18:21:24;6.70;;;1.70;;
5217;SDS011;26539;51.064;6.346;2022-08-21T18:23:50;2.60;;;1.60;;
5217;SDS011;26539;51.064;6.346;2022-08-21T18:26:20;5.20;;;1.77;;
5217;SDS011;26539;51.064;6.346;2022-08-21T18:28:50;6.27;;;1.83;;
5217;SDS011;26539;51.064;6.346;2022-08-21T18:31:16;4.33;;;1.60;;
5217;SDS011;26539;51.064;6.346;2022-08-21T18:33:42;4.43;;;1.97;;
5217;SDS011;26539;51.064;6.346;2022-08-21T18:36:08;6.77;;;2.10;;
5217;SDS011;26539;51.064;6.346;2022-08-21T18:38:33;3.43;;;1.57;;
5217;SDS011;26539;51.064;6.346;2022-08-21T18:40:59;4.43;;;1.77;;
5217;SDS011;26539;51.064;6.346;2022-08-21T18:43:26;5.40;;;1.73;;
5217;SDS011;26539;51.064;6.346;2022-08-21T18:45:52;5.20;;;1.40;;
5217;SDS011;26539;51.064;6.346;2022-08-21T18:48:18;8.03;;;1.90;;
5217;SDS011;26539;51.064;6.346;2022-08-21T18:50:44;7.70;;;3.10;;
5217;SDS011;26539;51.064;6.346;2022-08-21T18:53:11;16.03;;;8.10;;
5217;SDS011;26539;51.064;6.346;2022-08-21T18:55:38;16.90;;;7.10;;
5217;SDS011;26539;51.064;6.346;2022-08-21T18:58:05;17.10;;;9.87;;
5217;SDS011;26539;51.064;6.346;2022-08-21T19:00:39;9.00;;;5.37;;
5217;SDS011;26539;51.064;6.346;2022-08-21T19:03:10;10.53;;;2.83;;
5217;SDS011;26539;51.064;6.346;2022-08-21T19:05:36;4.17;;;2.73;;
5217;SDS011;26539;51.064;6.346;2022-08-21T19:08:03;6.07;;;2.30;;